Time;durP1;ratioP1;P1;durP2;ratioP2;P2;SDS_P1;SDS_P2;PMS_P1;PMS_P2;Temp;Humidity;BMP_temperature;BMP_pressure;BME280_temperature;BME280_humidity;BME280_pressure;Samples;Min_cycle;Max_cycle;Signal;HPM_P1;HPM_P2
2022/04/07 00:01:01;;;;;;;;;;;9.20;99.90;;;;;;5172161;27;19927;-73
2022/04/07 00:03:27;;;;;;;;;;;9.20;99.90;;;;;;5155500;27;19966;-72
2022/04/07 00:05:52;;;;;;;;;;;9.20;99.90;;;;;;5155392;27;19973;-73
2022/04/07 00:08:18;;;;;;;;;;;9.20;99.90;;;;;;5155621;27;19923;-72
2022/04/07 00:10:46;;;;;;;;;;;9.20;99.90;;;;;;5155704;27;19927;-72
2022/04/07 00:13:11;;;;;;;;;;;9.20;99.90;;;;;;5137010;27;20301;-72
2022/04/07 00:15:37;;;;;;;;;;;9.20;99.90;;;;;;5155544;27;19923;-73
2022/04/07 00:18:04;;;;;;;;;;;9.20;99.90;;;;;;5155425;27;20464;-71
2022/04/07 00:20:29;;;;;;;;;;;9.20;99.90;;;;;;5154962;27;19931;-71
2022/04/07 00:22:57;;;;;;;;;;;9.20;99.90;;;;;;5155635;27;20973;-72
2022/04/07 00:25:23;;;;;;;;;;;9.20;99.90;;;;;;5155328;27;19929;-72
2022/04/07 00:27:48;;;;;;;;;;;9.20;99.90;;;;;;5155428;27;19922;-72
2022/04/07 00:30:19;;;;;;;;;;;9.60;99.90;;;;;;5155371;27;19934;-72
2022/04/07 00:32:45;;;;;;;;;;;9.40;99.90;;;;;;5155340;27;19972;-71
2022/04/07 00:35:10;;;;;;;;;;;9.20;99.90;;;;;;5155161;27;19927;-72
2022/04/07 00:37:36;;;;;;;;;;;9.20;99.90;;;;;;5155612;27;19923;-73
2022/04/07 00:40:02;;;;;;;;;;;9.20;99.90;;;;;;5155073;27;19924;-72
2022/04/07 00:42:28;;;;;;;;;;;9.20;99.90;;;;;;5155300;27;19923;-73
2022/04/07 00:44:53;;;;;;;;;;;9.10;99.90;;;;;;5136904;27;19923;-72
2022/04/07 00:47:20;;;;;;;;;;;9.00;99.90;;;;;;5141062;27;19923;-71
2022/04/07 00:49:46;;;;;;;;;;;9.00;99.90;;;;;;5159184;27;19967;-72
2022/04/07 00:52:11;;;;;;;;;;;8.90;99.90;;;;;;5159296;27;19927;-72
2022/04/07 00:54:37;;;;;;;;;;;8.90;99.90;;;;;;5159449;27;19923;-71
2022/04/07 00:57:03;;;;;;;;;;;9.10;99.90;;;;;;5159245;27;20030;-71
2022/04/07 00:59:29;;;;;;;;;;;8.80;99.90;;;;;;5159086;27;20387;-71
2022/04/07 01:01:55;;;;;;;;;;;8.60;99.90;;;;;;5159025;27;20025;-73
2022/04/07 01:04:21;;;;;;;;;;;8.60;99.90;;;;;;5158863;27;19923;-72
2022/04/07 01:06:50;;;;;;;;;;;7.10;99.90;;;;;;5158764;27;19938;-72
2022/04/07 01:09:17;;;;;;;;;;;8.90;99.90;;;;;;5159024;27;19975;-71
2022/04/07 01:11:44;;;;;;;;;;;8.50;99.90;;;;;;5158938;27;19923;-71
2022/04/07 01:14:10;;;;;;;;;;;8.50;99.90;;;;;;5158822;27;19930;-70
2022/04/07 01:16:36;;;;;;;;;;;9.00;99.90;;;;;;5158781;27;19923;-71
2022/04/07 01:19:02;;;;;;;;;;;8.70;99.90;;;;;;5158650;27;20361;-72
2022/04/07 01:21:30;;;;;;;;;;;8.60;99.90;;;;;;5158446;27;19923;-72
2022/04/07 01:24:01;;;;;;;;;;;8.40;99.90;;;;;;5158682;27;20443;-72
2022/04/07 01:26:28;;;;;;;;;;;8.40;99.90;;;;;;5158598;27;19923;-73
2022/04/07 01:28:53;;;;;;;;;;;8.30;99.90;;;;;;5158381;27;20289;-72
2022/04/07 01:31:19;;;;;;;;;;;8.40;99.90;;;;;;5158473;27;19968;-71
2022/04/07 01:33:45;;;;;;;;;;;8.40;99.90;;;;;;5158413;27;19974;-72
2022/04/07 01:36:12;;;;;;;;;;;8.30;99.90;;;;;;5139232;27;19923;-71
2022/04/07 01:38:38;;;;;;;;;;;8.30;99.90;;;;;;5158424;27;19927;-72
2022/04/07 01:41:04;;;;;;;;;;;8.20;99.90;;;;;;5158379;27;19930;-74
2022/04/07 01:43:30;;;;;;;;;;;8.20;99.90;;;;;;5139704;27;19923;-72
2022/04/07 01:45:56;;;;;;;;;;;8.20;99.90;;;;;;5138972;27;19923;-71
2022/04/07 01:48:23;;;;;;;;;;;8.20;99.90;;;;;;5158092;27;19923;-71
2022/04/07 01:50:50;;;;;;;;;;;8.10;99.90;;;;;;5157760;27;19923;-72
2022/04/07 01:53:16;;;;;;;;;;;8.10;99.90;;;;;;5158197;27;19976;-74
2022/04/07 01:55:42;;;;;;;;;;;8.10;99.90;;;;;;5158089;27;20320;-72
2022/04/07 01:58:08;;;;;;;;;;;8.10;99.90;;;;;;5157259;27;19923;-72
2022/04/07 02:00:34;;;;;;;;;;;8.10;99.90;;;;;;5157925;27;20369;-73
2022/04/07 02:03:03;;;;;;;;;;;8.00;99.90;;;;;;5139653;27;19931;-72
2022/04/07 02:05:29;;;;;;;;;;;8.00;99.90;;;;;;5157578;27;19948;-73
2022/04/07 02:07:54;;;;;;;;;;;8.10;99.90;;;;;;5157707;27;20397;-72
2022/04/07 02:10:21;;;;;;;;;;;8.10;99.90;;;;;;5157832;27;19923;-74
2022/04/07 02:12:46;;;;;;;;;;;8.20;99.90;;;;;;5139461;27;19923;-72
2022/04/07 02:15:12;;;;;;;;;;;8.20;99.90;;;;;;5139492;27;20390;-72
2022/04/07 02:17:38;;;;;;;;;;;8.20;99.90;;;;;;5157591;27;19974;-71
2022/04/07 02:20:06;;;;;;;;;;;8.30;99.90;;;;;;5156938;27;20201;-71
2022/04/07 02:22:32;;;;;;;;;;;8.30;99.90;;;;;;5157578;27;19923;-71
2022/04/07 02:24:58;;;;;;;;;;;8.30;99.90;;;;;;5139066;27;19992;-71
2022/04/07 02:27:25;;;;;;;;;;;8.30;99.90;;;;;;5157477;27;19930;-72
2022/04/07 02:29:51;;;;;;;;;;;8.30;99.90;;;;;;5157364;27;19981;-72
2022/04/07 02:32:16;;;;;;;;;;;8.40;99.90;;;;;;5139082;27;19970;-72
2022/04/07 02:34:43;;;;;;;;;;;9.10;99.90;;;;;;5157124;27;19930;-72
2022/04/07 02:37:09;;;;;;;;;;;8.40;99.90;;;;;;5157083;27;19946;-72
2022/04/07 02:39:34;;;;;;;;;;;8.80;99.90;;;;;;5157279;27;19946;-73
2022/04/07 02:42:00;;;;;;;;;;;8.40;99.90;;;;;;5157167;27;20382;-72
2022/04/07 02:44:25;;;;;;;;;;;8.40;99.90;;;;;;5157084;27;19970;-73
2022/04/07 02:46:51;;;;;;;;;;;8.40;99.90;;;;;;5157005;27;19930;-71
2022/04/07 02:49:17;;;;;;;;;;;8.30;99.90;;;;;;5138431;27;19923;-71
2022/04/07 02:51:43;;;;;;;;;;;9.60;99.90;;;;;;5138245;27;19992;-71
2022/04/07 02:54:09;;;;;;;;;;;8.50;99.90;;;;;;5156966;27;19966;-73
2022/04/07 02:56:34;;;;;;;;;;;8.90;99.90;;;;;;5156964;27;19927;-71
2022/04/07 02:59:00;;;;;;;;;;;8.80;99.90;;;;;;5156925;27;20005;-72
2022/04/07 03:01:26;;;;;;;;;;;8.40;99.90;;;;;;5156713;27;19923;-71
2022/04/07 03:03:55;;;;;;;;;;;7.80;99.90;;;;;;5138330;27;20441;-71
2022/04/07 03:06:21;;;;;;;;;;;9.50;99.90;;;;;;5138299;27;19923;-71
2022/04/07 03:08:47;;;;;;;;;;;8.60;99.90;;;;;;5156269;27;19930;-72
2022/04/07 03:11:13;;;;;;;;;;;8.40;99.90;;;;;;5156709;27;19926;-71
2022/04/07 03:13:39;;;;;;;;;;;8.80;99.90;;;;;;5156558;27;19976;-71
2022/04/07 03:16:05;;;;;;;;;;;8.40;99.90;;;;;;5156454;27;19927;-70
2022/04/07 03:18:32;;;;;;;;;;;8.40;99.90;;;;;;5156216;27;19923;-71
2022/04/07 03:20:57;;;;;;;;;;;8.40;99.90;;;;;;5156102;27;19967;-71
2022/04/07 03:23:23;;;;;;;;;;;8.40;99.90;;;;;;5137693;27;19999;-71
2022/04/07 03:25:49;;;;;;;;;;;8.40;99.90;;;;;;5156239;27;20041;-72
2022/04/07 03:28:14;;;;;;;;;;;7.40;99.90;;;;;;5156331;27;19970;-72
2022/04/07 03:30:40;;;;;;;;;;;8.40;99.90;;;;;;5156236;27;19923;-73
2022/04/07 03:33:06;;;;;;;;;;;8.40;99.90;;;;;;5156132;27;20297;-70
2022/04/07 03:35:32;;;;;;;;;;;9.50;99.90;;;;;;5155946;27;19923;-73
2022/04/07 03:37:57;;;;;;;;;;;8.40;99.90;;;;;;5137753;27;19924;-72
2022/04/07 03:40:25;;;;;;;;;;;9.40;99.90;;;;;;5137702;27;19923;-72
2022/04/07 03:42:51;;;;;;;;;;;8.40;99.90;;;;;;5156080;27;19923;-70
2022/04/07 03:45:17;;;;;;;;;;;8.40;99.90;;;;;;5155896;27;19935;-72
2022/04/07 03:47:42;;;;;;;;;;;8.40;99.90;;;;;;5155716;27;20369;-72
2022/04/07 03:50:08;;;;;;;;;;;8.40;99.90;;;;;;5155793;27;19944;-71
2022/04/07 03:52:34;;;;;;;;;;;8.40;99.90;;;;;;5137696;27;20456;-71
2022/04/07 03:54:59;;;;;;;;;;;8.40;99.90;;;;;;5155618;27;19923;-71
2022/04/07 03:57:25;;;;;;;;;;;8.30;99.90;;;;;;5155801;27;19966;-72
2022/04/07 03:59:50;;;;;;;;;;;8.40;99.90;;;;;;5155737;27;19923;-74
2022/04/07 04:02:16;;;;;;;;;;;8.60;99.90;;;;;;5155795;27;20334;-73
2022/04/07 04:04:42;;;;;;;;;;;8.30;99.90;;;;;;5155424;27;19927;-71
2022/04/07 04:07:07;;;;;;;;;;;8.30;99.90;;;;;;5137153;27;19923;-71
2022/04/07 04:09:33;;;;;;;;;;;8.70;99.90;;;;;;5155419;27;19923;-72
2022/04/07 04:11:58;;;;;;;;;;;8.30;99.90;;;;;;5136987;27;19923;-71
2022/04/07 04:14:24;;;;;;;;;;;8.40;99.90;;;;;;5155373;27;19990;-71
2022/04/07 04:16:50;;;;;;;;;;;8.30;99.90;;;;;;5155664;27;19923;-71
2022/04/07 04:19:16;;;;;;;;;;;7.20;99.90;;;;;;5155230;27;19923;-71
2022/04/07 04:21:41;;;;;;;;;;;8.30;99.90;;;;;;5154920;27;19996;-72
2022/04/07 04:24:07;;;;;;;;;;;8.50;99.90;;;;;;5136716;27;19923;-73
2022/04/07 04:26:33;;;;;;;;;;;8.30;99.90;;;;;;5137029;27;19929;-72
2022/04/07 04:28:58;;;;;;;;;;;8.30;99.90;;;;;;5155412;27;19923;-71
2022/04/07 04:31:24;;;;;;;;;;;8.90;99.90;;;;;;5155405;27;19934;-71
2022/04/07 04:33:51;;;;;;;;;;;8.30;99.90;;;;;;5137202;27;19923;-72
2022/04/07 04:36:17;;;;;;;;;;;8.30;99.90;;;;;;5155229;27;19923;-73
2022/04/07 04:38:42;;;;;;;;;;;8.30;99.90;;;;;;5155216;27;20407;-73
2022/04/07 04:41:09;;;;;;;;;;;8.30;99.90;;;;;;5155136;27;19923;-71
2022/04/07 04:43:35;;;;;;;;;;;8.30;99.90;;;;;;5155407;27;19926;-71
2022/04/07 04:46:01;;;;;;;;;;;8.30;99.90;;;;;;5155175;27;19975;-72
2022/04/07 04:48:27;;;;;;;;;;;8.30;99.90;;;;;;5136774;27;19923;-72
2022/04/07 04:50:55;;;;;;;;;;;8.30;99.90;;;;;;5155029;27;19923;-71
2022/04/07 04:53:22;;;;;;;;;;;8.30;99.90;;;;;;5155229;27;19974;-72
2022/04/07 04:55:48;;;;;;;;;;;8.70;99.90;;;;;;5154980;27;19968;-71
2022/04/07 04:58:14;;;;;;;;;;;9.10;99.90;;;;;;5155493;27;20270;-71
2022/04/07 05:00:40;;;;;;;;;;;8.40;99.90;;;;;;5155173;27;19923;-72
2022/04/07 05:03:05;;;;;;;;;;;8.30;99.90;;;;;;5136844;27;19923;-73
2022/04/07 05:05:31;;;;;;;;;;;8.30;99.90;;;;;;5136533;27;20292;-72
2022/04/07 05:07:57;;;;;;;;;;;8.30;99.90;;;;;;5154981;27;19976;-71
2022/04/07 05:10:22;;;;;;;;;;;8.40;99.90;;;;;;5136400;27;20481;-74
2022/04/07 05:12:48;;;;;;;;;;;8.40;99.90;;;;;;5154751;27;19923;-72
2022/04/07 05:15:13;;;;;;;;;;;8.40;99.90;;;;;;5155037;27;20014;-71
2022/04/07 05:17:39;;;;;;;;;;;8.40;99.90;;;;;;5155202;27;19923;-70
2022/04/07 05:20:05;;;;;;;;;;;8.60;99.90;;;;;;5118491;27;20396;-71
2022/04/07 05:22:30;;;;;;;;;;;8.40;99.90;;;;;;5154662;27;19923;-71
2022/04/07 05:24:56;;;;;;;;;;;8.40;99.90;;;;;;5154719;27;20277;-73
2022/04/07 05:27:22;;;;;;;;;;;8.60;99.90;;;;;;5154638;27;20373;-71
2022/04/07 05:29:47;;;;;;;;;;;8.40;99.90;;;;;;5154919;27;19923;-71
2022/04/07 05:32:13;;;;;;;;;;;8.30;99.90;;;;;;5137479;27;19974;-74
2022/04/07 05:34:39;;;;;;;;;;;8.60;99.90;;;;;;5158490;27;19948;-71
2022/04/07 05:37:05;;;;;;;;;;;8.30;99.90;;;;;;5140019;27;19934;-71
2022/04/07 05:39:30;;;;;;;;;;;8.90;99.90;;;;;;5158331;27;19923;-74
2022/04/07 05:41:56;;;;;;;;;;;8.10;99.90;;;;;;5158160;27;20316;-71
2022/04/07 05:44:21;;;;;;;;;;;8.20;99.90;;;;;;5158337;27;19929;-71
2022/04/07 05:46:47;;;;;;;;;;;8.00;99.90;;;;;;5140161;27;20369;-71
2022/04/07 05:49:13;;;;;;;;;;;8.00;99.90;;;;;;5158209;27;19976;-72
2022/04/07 05:51:38;;;;;;;;;;;8.00;99.90;;;;;;5158206;27;19923;-71
2022/04/07 05:54:04;;;;;;;;;;;9.20;99.90;;;;;;5158056;27;19990;-71
2022/04/07 05:56:29;;;;;;;;;;;7.90;99.90;;;;;;5158036;27;19976;-71
2022/04/07 05:58:55;;;;;;;;;;;7.90;99.90;;;;;;5157855;27;19974;-71
2022/04/07 06:01:20;;;;;;;;;;;7.90;99.90;;;;;;5158036;27;19923;-72
2022/04/07 06:03:46;;;;;;;;;;;7.90;99.90;;;;;;5157826;27;20427;-72
2022/04/07 06:06:12;;;;;;;;;;;7.90;99.90;;;;;;5157873;27;19923;-73
2022/04/07 06:08:37;;;;;;;;;;;7.90;99.90;;;;;;5157810;27;19923;-71
2022/04/07 06:11:03;;;;;;;;;;;7.90;99.90;;;;;;5157785;27;19946;-71
2022/04/07 06:13:29;;;;;;;;;;;8.00;99.90;;;;;;5139354;27;20379;-71
2022/04/07 06:15:54;;;;;;;;;;;8.00;99.90;;;;;;5157841;27;19945;-73
2022/04/07 06:18:20;;;;;;;;;;;7.30;99.90;;;;;;5139574;27;19984;-71
2022/04/07 06:20:47;;;;;;;;;;;6.40;99.90;;;;;;5157520;27;20396;-71
2022/04/07 06:23:12;;;;;;;;;;;6.50;99.90;;;;;;5157538;27;19939;-74
2022/04/07 06:25:38;;;;;;;;;;;6.10;99.90;;;;;;5138913;27;19930;-71
2022/04/07 06:28:04;;;;;;;;;;;5.20;99.90;;;;;;5137828;27;19929;-71
2022/04/07 06:30:30;;;;;;;;;;;4.90;99.90;;;;;;5157254;27;19984;-71
2022/04/07 06:32:56;;;;;;;;;;;5.60;99.90;;;;;;5157172;27;19923;-71
2022/04/07 06:35:22;;;;;;;;;;;4.60;99.90;;;;;;5157236;27;19923;-72
2022/04/07 06:37:56;;;;;;;;;;;4.90;99.90;;;;;;5157106;27;19923;-71
2022/04/07 06:40:24;;;;;;;;;;;5.60;99.90;;;;;;5138892;27;19930;-71
2022/04/07 06:42:51;;;;;;;;;;;4.60;99.90;;;;;;5138021;27;19927;-75
2022/04/07 06:45:16;;;;;;;;;;;5.60;99.90;;;;;;5156988;27;19968;-72
2022/04/07 06:47:43;;;;;;;;;;;4.60;99.90;;;;;;5157091;27;20377;-70
2022/04/07 06:50:15;;;;;;;;;;;4.70;99.90;;;;;;5138449;27;20432;-73
2022/04/07 06:52:41;;;;;;;;;;;4.60;99.90;;;;;;5156783;27;20370;-72
2022/04/07 06:55:07;;;;;;;;;;;5.80;99.90;;;;;;5156790;27;19924;-75
2022/04/07 06:57:48;;;;;;;;;;;4.60;99.90;;;;;;5156565;27;19930;-70
2022/04/07 07:00:14;;;;;;;;;;;4.60;99.90;;;;;;5156760;27;19946;-71
2022/04/07 07:02:40;;;;;;;;;;;4.60;99.90;;;;;;5156592;27;20370;-71
2022/04/07 07:05:18;;;;;;;;;;;4.60;99.90;;;;;;5156548;27;20022;-73
2022/04/07 07:07:44;;;;;;;;;;;4.60;99.90;;;;;;5156391;27;19985;-71
2022/04/07 07:10:10;;;;;;;;;;;5.00;99.90;;;;;;5138172;27;19924;-72
2022/04/07 07:12:36;;;;;;;;;;;4.60;99.90;;;;;;5156544;27;19927;-75
2022/04/07 07:15:01;;;;;;;;;;;4.70;99.90;;;;;;5156529;27;20017;-77
2022/04/07 07:17:33;;;;;;;;;;;4.70;99.90;;;;;;5138216;27;19929;-69
2022/04/07 07:20:23;;;;;;;;;;;3.10;99.90;;;;;;5156253;27;19930;-73
2022/04/07 07:22:49;;;;;;;;;;;4.70;99.90;;;;;;5051793;28;19925;-71
2022/04/07 07:25:15;;;;;;;;;;;5.20;99.90;;;;;;5051760;28;19931;-74
2022/04/07 07:27:41;;;;;;;;;;;6.50;99.90;;;;;;5051952;28;19929;-70
2022/04/07 07:30:09;;;;;;;;;;;5.00;99.90;;;;;;5035624;28;19932;-70
2022/04/07 07:32:40;;;;;;;;;;;4.80;99.90;;;;;;5052131;28;19964;-70
2022/04/07 07:35:06;;;;;;;;;;;4.90;99.90;;;;;;5051932;28;19929;-70
2022/04/07 07:37:32;;;;;;;;;;;4.90;99.90;;;;;;5051838;28;19972;-73
2022/04/07 07:40:04;;;;;;;;;;;6.70;99.90;;;;;;5051870;28;19964;-73
2022/04/07 07:42:30;;;;;;;;;;;5.00;99.90;;;;;;5051916;28;19924;-71
2022/04/07 07:44:56;;;;;;;;;;;6.20;99.90;;;;;;5035235;28;20338;-69
2022/04/07 07:47:21;;;;;;;;;;;5.20;99.90;;;;;;5051824;28;20053;-70
2022/04/07 07:49:47;;;;;;;;;;;5.10;99.90;;;;;;5051759;28;19932;-70
2022/04/07 07:52:12;;;;;;;;;;;5.10;99.90;;;;;;5051488;28;19924;-70
2022/04/07 07:54:38;;;;;;;;;;;5.10;99.90;;;;;;5051009;28;19931;-69
2022/04/07 07:57:04;;;;;;;;;;;5.10;99.90;;;;;;5051540;28;20414;-69
2022/04/07 07:59:29;;;;;;;;;;;5.10;99.90;;;;;;5091346;27;20305;-69
2022/04/07 08:01:55;;;;;;;;;;;5.10;99.90;;;;;;5172106;27;20345;-72
2022/04/07 08:04:20;;;;;;;;;;;4.40;99.90;;;;;;5155528;27;19923;-70
2022/04/07 08:06:46;;;;;;;;;;;5.90;99.90;;;;;;5137125;27;20308;-70
2022/04/07 08:09:13;;;;;;;;;;;5.10;99.90;;;;;;5155751;27;20068;-73
2022/04/07 08:11:40;;;;;;;;;;;5.60;99.90;;;;;;5155633;27;19923;-68
2022/04/07 08:14:06;;;;;;;;;;;6.30;99.90;;;;;;5155309;27;20393;-70
2022/04/07 08:16:31;;;;;;;;;;;5.00;99.90;;;;;;5155483;27;19923;-69
2022/04/07 08:18:57;;;;;;;;;;;5.60;99.90;;;;;;5155340;27;19981;-69
2022/04/07 08:21:23;;;;;;;;;;;5.00;99.90;;;;;;5155265;27;20021;-73
2022/04/07 08:23:48;;;;;;;;;;;5.00;99.90;;;;;;5155240;27;20088;-70
2022/04/07 08:26:14;;;;;;;;;;;5.10;99.90;;;;;;5155485;27;20437;-69
2022/04/07 08:28:40;;;;;;;;;;;5.10;99.90;;;;;;5155396;27;19923;-72
2022/04/07 08:31:05;;;;;;;;;;;5.20;99.90;;;;;;5155408;27;19963;-69
2022/04/07 08:33:31;;;;;;;;;;;5.90;99.90;;;;;;5155422;27;19983;-70
2022/04/07 08:35:57;;;;;;;;;;;5.20;99.90;;;;;;5155130;27;19953;-69
2022/04/07 08:38:22;;;;;;;;;;;6.30;99.90;;;;;;5136887;27;19974;-69
2022/04/07 08:40:51;;;;;;;;;;;5.90;99.90;;;;;;5155367;27;19930;-71
2022/04/07 08:43:17;;;;;;;;;;;5.20;99.90;;;;;;5155262;27;20369;-69
2022/04/07 08:45:43;;;;;;;;;;;5.20;99.90;;;;;;5155265;27;19930;-70
2022/04/07 08:48:10;;;;;;;;;;;5.20;99.90;;;;;;5136665;27;19923;-70
2022/04/07 08:50:49;;;;;;;;;;;6.40;99.90;;;;;;5136749;27;20270;-68
2022/04/07 08:53:15;;;;;;;;;;;5.30;99.90;;;;;;5155248;27;19992;-69
2022/04/07 08:55:40;;;;;;;;;;;5.30;99.90;;;;;;5155501;27;19928;-69
2022/04/07 08:58:06;;;;;;;;;;;5.70;99.90;;;;;;5154969;27;20293;-71
2022/04/07 09:00:31;;;;;;;;;;;5.50;99.90;;;;;;5155067;27;19923;-68
2022/04/07 09:02:57;;;;;;;;;;;5.60;99.90;;;;;;5136826;27;19930;-69
2022/04/07 09:05:23;;;;;;;;;;;5.60;99.90;;;;;;5154875;27;19926;-69
2022/04/07 09:07:50;;;;;;;;;;;5.70;99.90;;;;;;5158672;27;19923;-69
2022/04/07 09:10:20;;;;;;;;;;;5.80;99.90;;;;;;5158962;27;19976;-68
2022/04/07 09:12:45;;;;;;;;;;;5.80;99.90;;;;;;5158894;27;19930;-69
2022/04/07 09:15:14;;;;;;;;;;;6.00;99.90;;;;;;5158831;27;19923;-71
2022/04/07 09:17:53;;;;;;;;;;;6.10;99.90;;;;;;5158724;27;20365;-69
2022/04/07 09:20:19;;;;;;;;;;;6.30;99.90;;;;;;5158886;27;20013;-69
2022/04/07 09:22:53;;;;;;;;;;;6.50;99.90;;;;;;5158359;27;19923;-71
2022/04/07 09:25:19;;;;;;;;;;;6.90;99.90;;;;;;5158592;27;19923;-69
2022/04/07 09:27:47;;;;;;;;;;;8.20;99.90;;;;;;5139766;27;19983;-69
2022/04/07 09:30:13;;;;;;;;;;;7.20;99.90;;;;;;5158530;27;19923;-70
2022/04/07 09:32:45;;;;;;;;;;;7.80;99.90;;;;;;5139993;27;19930;-71
2022/04/07 09:35:11;;;;;;;;;;;7.20;99.90;;;;;;5158247;27;19923;-70
2022/04/07 09:37:38;;;;;;;;;;;7.80;99.90;;;;;;5158422;27;19923;-69
2022/04/07 09:40:12;;;;;;;;;;;7.60;99.90;;;;;;5158354;27;19967;-69
2022/04/07 09:42:39;;;;;;;;;;;7.60;99.90;;;;;;5139124;27;19923;-70
2022/04/07 09:45:07;;;;;;;;;;;8.50;99.90;;;;;;5158164;27;19930;-70
2022/04/07 09:47:40;;;;;;;;;;;7.90;99.90;;;;;;5140005;27;20410;-69
2022/04/07 09:50:07;;;;;;;;;;;8.10;99.90;;;;;;5158275;27;20023;-69
2022/04/07 09:52:32;;;;;;;;;;;8.10;99.90;;;;;;5157885;27;20017;-69
2022/04/07 09:55:02;;;;;;;;;;;8.20;99.90;;;;;;5158065;27;19966;-70
2022/04/07 09:57:28;;;;;;;;;;;8.30;99.90;;;;;;5139571;27;19970;-69
2022/04/07 09:59:54;;;;;;;;;;;8.80;99.90;;;;;;5157883;27;20026;-69
2022/04/07 10:02:20;;;;;;;;;;;8.30;99.90;;;;;;5139587;27;20402;-70
2022/04/07 10:04:46;;;;;;;;;;;7.80;99.90;;;;;;5157973;27;19927;-70
2022/04/07 10:07:12;;;;;;;;;;;9.10;99.90;;;;;;5157876;27;20374;-69
2022/04/07 10:09:39;;;;;;;;;;;8.60;99.90;;;;;;5157599;27;20460;-69
2022/04/07 10:12:05;;;;;;;;;;;8.80;99.90;;;;;;5163641;27;19966;-69
2022/04/07 10:14:31;;;;;;;;;;;8.80;99.90;;;;;;5178619;27;19930;-69
2022/04/07 10:16:56;;;;;;;;;;;9.50;99.90;;;;;;5178372;27;19983;-70
2022/04/07 10:19:25;;;;;;;;;;;8.90;99.90;;;;;;5177356;27;19927;-69
2022/04/07 10:21:57;;;;;;;;;;;9.00;99.90;;;;;;5178230;27;19922;-69
2022/04/07 10:24:34;;;;;;;;;;;9.10;99.90;;;;;;5176909;27;19945;-70
2022/04/07 10:27:04;;;;;;;;;;;9.10;99.90;;;;;;5159240;27;20034;-69
2022/04/07 10:29:30;;;;;;;;;;;9.20;99.90;;;;;;5158869;27;20342;-68
2022/04/07 10:32:25;;;;;;;;;;;9.30;99.90;;;;;;5177856;27;19926;-70
2022/04/07 10:34:54;;;;;;;;;;;9.40;99.90;;;;;;5072792;28;19931;-69
2022/04/07 10:37:29;;;;;;;;;;;9.50;99.90;;;;;;5072541;28;20466;-71
2022/04/07 10:39:55;;;;;;;;;;;9.60;99.90;;;;;;5072775;28;19936;-70
2022/04/07 10:42:39;;;;;;;;;;;9.60;99.90;;;;;;5072735;28;20117;-70
2022/04/07 10:45:05;;;;;;;;;;;9.50;99.90;;;;;;5072603;28;19935;-68
2022/04/07 10:47:32;;;;;;;;;;;9.40;99.90;;;;;;5072709;28;20404;-70
2022/04/07 10:49:58;;;;;;;;;;;9.40;99.90;;;;;;5072577;28;19924;-69
2022/04/07 10:52:27;;;;;;;;;;;9.40;99.90;;;;;;5055770;28;19974;-70
2022/04/07 10:55:26;;;;;;;;;;;9.60;99.90;;;;;;5072362;28;19925;-70
2022/04/07 10:58:14;;;;;;;;;;;9.60;99.90;;;;;;5032366;28;20269;-69
2022/04/07 11:00:41;;;;;;;;;;;9.70;99.90;;;;;;5032522;28;19925;-70
2022/04/07 11:03:15;;;;;;;;;;;9.60;99.90;;;;;;5032378;28;19995;-69
2022/04/07 11:05:58;;;;;;;;;;;10.70;99.90;;;;;;5032396;28;20396;-70
2022/04/07 11:08:24;;;;;;;;;;;8.50;99.90;;;;;;5015532;28;19971;-70
2022/04/07 11:10:52;;;;;;;;;;;7.60;99.90;;;;;;5042520;28;19990;-70
2022/04/07 11:13:38;;;;;;;;;;;7.50;99.90;;;;;;5112557;28;20259;-69
2022/04/07 11:16:14;;;;;;;;;;;7.70;99.90;;;;;;5112622;28;19927;-72
2022/04/07 11:19:05;;;;;;;;;;;7.90;99.90;;;;;;5095246;28;20299;-71
2022/04/07 11:21:52;;;;;;;;;;;8.10;99.90;;;;;;5112211;28;20022;-72
2022/04/07 11:24:23;;;;;;;;;;;8.20;99.90;;;;;;5112239;28;20352;-71
2022/04/07 11:26:53;;;;;;;;;;;8.10;99.90;;;;;;5112365;28;20449;-70
2022/04/07 11:29:33;;;;;;;;;;;8.10;99.90;;;;;;5095274;28;20406;-70
2022/04/07 11:32:06;;;;;;;;;;;8.00;99.90;;;;;;5112548;28;20283;-69
2022/04/07 11:34:36;;;;;;;;;;;8.10;99.90;;;;;;5154073;27;19923;-68
2022/04/07 11:37:09;;;;;;;;;;;8.10;99.90;;;;;;5154482;27;19927;-69
2022/04/07 11:39:40;;;;;;;;;;;8.10;99.90;;;;;;5155775;27;19938;-70
2022/04/07 11:42:06;;;;;;;;;;;8.00;99.90;;;;;;5155753;27;19927;-70
2022/04/07 11:44:33;;;;;;;;;;;7.80;99.90;;;;;;5155583;27;19983;-69
2022/04/07 11:47:00;;;;;;;;;;;7.50;99.90;;;;;;5155555;27;19930;-72
2022/04/07 11:49:28;;;;;;;;;;;7.30;99.90;;;;;;5155565;27;20404;-71
2022/04/07 11:51:55;;;;;;;;;;;7.20;99.90;;;;;;5155503;27;20378;-71
2022/04/07 11:54:22;;;;;;;;;;;7.20;99.90;;;;;;5154464;27;20018;-71
2022/04/07 11:56:51;;;;;;;;;;;7.40;99.90;;;;;;5155597;27;20382;-70
2022/04/07 11:59:18;;;;;;;;;;;7.60;99.90;;;;;;5154132;27;19923;-71
2022/04/07 12:01:45;;;;;;;;;;;7.90;99.90;;;;;;5154161;27;19923;-71
2022/04/07 12:04:13;;;;;;;;;;;8.10;99.90;;;;;;5155241;27;19923;-71
2022/04/07 12:06:40;;;;;;;;;;;8.30;99.90;;;;;;5155368;27;20014;-70
2022/04/07 12:09:08;;;;;;;;;;;8.60;99.90;;;;;;5155275;27;19927;-69
2022/04/07 12:11:36;;;;;;;;;;;8.70;99.90;;;;;;5155318;27;20289;-71
2022/04/07 12:14:04;;;;;;;;;;;8.90;99.90;;;;;;5155393;27;19924;-72
2022/04/07 12:16:30;;;;;;;;;;;9.10;99.90;;;;;;5153759;27;19923;-69
2022/04/07 12:18:58;;;;;;;;;;;9.10;99.90;;;;;;5159385;27;20407;-69
2022/04/07 12:21:25;;;;;;;;;;;9.20;99.90;;;;;;5175788;27;20491;-70
2022/04/07 12:24:13;;;;;;;;;;;9.20;99.90;;;;;;5176030;27;19965;-70
2022/04/07 12:26:48;;;;;;;;;;;9.10;99.90;;;;;;5175806;27;19991;-72
2022/04/07 12:29:25;;;;;;;;;;;9.20;99.90;;;;;;5157507;27;19923;-71
2022/04/07 12:31:58;;;;;;;;;;;9.10;99.90;;;;;;5176058;27;19946;-71
2022/04/07 12:34:25;;;;;;;;;;;9.10;99.90;;;;;;5176034;27;19930;-70
2022/04/07 12:36:53;;;;;;;;;;;9.20;99.90;;;;;;5175892;27;19922;-69
2022/04/07 12:39:20;;;;;;;;;;;9.30;99.90;;;;;;5157069;27;19923;-70
2022/04/07 12:41:47;;;;;;;;;;;9.40;99.90;;;;;;5177587;27;20297;-71
2022/04/07 12:44:17;;;;;;;;;;;9.40;99.90;;;;;;5179840;27;19930;-69
2022/04/07 12:46:44;;;;;;;;;;;9.50;99.90;;;;;;5160943;27;19923;-70
2022/04/07 12:49:10;;;;;;;;;;;9.60;99.90;;;;;;5180123;27;19929;-71
2022/04/07 12:51:38;;;;;;;;;;;9.50;99.90;;;;;;5179912;27;19922;-69
2022/04/07 12:54:05;;;;;;;;;;;9.60;99.90;;;;;;5179870;27;20106;-71
2022/04/07 12:56:31;;;;;;;;;;;10.00;99.90;;;;;;5179641;27;20334;-70
2022/04/07 12:59:04;;;;;;;;;;;9.80;99.90;;;;;;5179961;27;19923;-70
2022/04/07 13:01:33;;;;;;;;;;;9.80;99.90;;;;;;5179878;27;19923;-70
2022/04/07 13:04:00;;;;;;;;;;;9.80;99.90;;;;;;5179589;27;19923;-72
2022/04/07 13:06:26;;;;;;;;;;;9.60;99.90;;;;;;5179022;27;20397;-70
2022/04/07 13:08:53;;;;;;;;;;;9.20;99.90;;;;;;5179617;27;19974;-72
2022/04/07 13:11:48;;;;;;;;;;;8.70;99.90;;;;;;5161034;27;19972;-70
2022/04/07 13:14:14;;;;;;;;;;;8.30;99.90;;;;;;5074303;28;20402;-70
2022/04/07 13:16:40;;;;;;;;;;;7.90;99.90;;;;;;5074407;28;19931;-69
2022/04/07 13:19:08;;;;;;;;;;;7.60;99.90;;;;;;5074070;28;19994;-72
2022/04/07 13:21:50;;;;;;;;;;;6.60;99.90;;;;;;5067324;28;20400;-70
2022/04/07 13:24:16;;;;;;;;;;;5.90;99.90;;;;;;5054113;28;20016;-71
2022/04/07 13:26:44;;;;;;;;;;;5.60;99.90;;;;;;5054553;28;20352;-69
2022/04/07 13:29:10;;;;;;;;;;;5.70;99.90;;;;;;5054133;28;19925;-70
2022/04/07 13:31:36;;;;;;;;;;;6.00;99.90;;;;;;5054131;28;19925;-70
2022/04/07 13:34:04;;;;;;;;;;;6.20;99.90;;;;;;5054145;28;20031;-70
2022/04/07 13:36:30;;;;;;;;;;;6.30;99.90;;;;;;5054000;28;19925;-70
2022/04/07 13:38:59;;;;;;;;;;;6.40;99.90;;;;;;5053880;28;19944;-70
2022/04/07 13:41:26;;;;;;;;;;;6.50;99.90;;;;;;5054014;28;19999;-70
2022/04/07 13:43:52;;;;;;;;;;;6.50;99.90;;;;;;5053909;28;19925;-70
2022/04/07 13:46:19;;;;;;;;;;;6.30;99.90;;;;;;5053734;28;20348;-70
2022/04/07 13:48:45;;;;;;;;;;;6.30;99.90;;;;;;5053792;28;19929;-71
2022/04/07 13:51:15;;;;;;;;;;;6.40;99.90;;;;;;5112161;27;20332;-70
2022/04/07 13:53:41;;;;;;;;;;;6.40;99.90;;;;;;5135016;27;20350;-70
2022/04/07 13:56:07;;;;;;;;;;;6.40;99.90;;;;;;5137020;27;20389;-70
2022/04/07 13:58:34;;;;;;;;;;;6.60;99.90;;;;;;5118915;27;19931;-73
2022/04/07 14:01:00;;;;;;;;;;;6.90;99.90;;;;;;5137092;27;19924;-70
2022/04/07 14:03:26;;;;;;;;;;;7.10;99.90;;;;;;5136780;27;19930;-70
2022/04/07 14:05:54;;;;;;;;;;;7.40;99.90;;;;;;5118083;27;20305;-72
2022/04/07 14:08:24;;;;;;;;;;;7.50;99.90;;;;;;5135935;27;20397;-70
2022/04/07 14:10:50;;;;;;;;;;;7.40;99.90;;;;;;5136744;27;20390;-69
2022/04/07 14:13:18;;;;;;;;;;;6.90;99.90;;;;;;5136648;27;20338;-70
2022/04/07 14:15:45;;;;;;;;;;;6.40;99.90;;;;;;5136723;27;20394;-70
2022/04/07 14:18:11;;;;;;;;;;;6.20;99.90;;;;;;5136744;27;19923;-70
2022/04/07 14:20:40;;;;;;;;;;;6.20;99.90;;;;;;5174063;27;19923;-69
2022/04/07 14:23:06;;;;;;;;;;;6.10;99.90;;;;;;5178232;27;20017;-73
2022/04/07 14:25:35;;;;;;;;;;;6.20;99.90;;;;;;5159619;27;20289;-70
2022/04/07 14:28:01;;;;;;;;;;;6.20;99.90;;;;;;5177871;27;20433;-71
2022/04/07 14:30:26;;;;;;;;;;;6.20;99.90;;;;;;5177888;27;19922;-72
2022/04/07 14:32:52;;;;;;;;;;;7.10;99.90;;;;;;5158123;27;19930;-70